sensor_id;sensor_type;location;lat;lon;timestamp;P1;durP1;ratioP1;P2;durP2;ratioP2
7029;SDS011;3556;53.500;10.176;2022-11-20T00:00:08;9.37;;;8.27;;
7029;SDS011;3556;53.500;10.176;2022-11-20T00:02:35;12.77;;;8.40;;
7029;SDS011;3556;53.500;10.176;2022-11-20T00:05:00;18.13;;;8.90;;
7029;SDS011;3556;53.500;10.176;2022-11-20T00:07:26;9.03;;;8.13;;
7029;SDS011;3556;53.500;10.176;2022-11-20T00:09:51;13.60;;;7.90;;
7029;SDS011;3556;53.500;10.176;2022-11-20T00:12:17;9.53;;;8.40;;
7029;SDS011;3556;53.500;10.176;2022-11-20T00:14:43;15.00;;;7.70;;
7029;SDS011;3556;53.500;10.176;2022-11-20T00:17:08;10.60;;;8.50;;
7029;SDS011;3556;53.500;10.176;2022-11-20T00:19:34;8.60;;;7.70;;
7029;SDS011;3556;53.500;10.176;2022-11-20T00:21:59;10.60;;;8.57;;
7029;SDS011;3556;53.500;10.176;2022-11-20T00:24:25;10.67;;;8.13;;
7029;SDS011;3556;53.500;10.176;2022-11-20T00:26:50;9.47;;;8.47;;
7029;SDS011;3556;53.500;10.176;2022-11-20T00:29:16;9.50;;;8.53;;
7029;SDS011;3556;53.500;10.176;2022-11-20T00:31:42;9.03;;;7.87;;
7029;SDS011;3556;53.500;10.176;2022-11-20T00:34:08;8.90;;;7.93;;
7029;SDS011;3556;53.500;10.176;2022-11-20T00:36:34;10.07;;;8.30;;
7029;SDS011;3556;53.500;10.176;2022-11-20T00:39:00;11.00;;;7.80;;
7029;SDS011;3556;53.500;10.176;2022-11-20T00:41:26;9.07;;;8.13;;
7029;SDS011;3556;53.500;10.176;2022-11-20T00:43:53;11.03;;;7.93;;
7029;SDS011;3556;53.500;10.176;2022-11-20T00:46:21;8.00;;;7.20;;
7029;SDS011;3556;53.500;10.176;2022-11-20T00:48:48;7.83;;;7.03;;
7029;SDS011;3556;53.500;10.176;2022-11-20T00:51:14;8.73;;;8.00;;
7029;SDS011;3556;53.500;10.176;2022-11-20T00:53:42;7.80;;;7.20;;
7029;SDS011;3556;53.500;10.176;2022-11-20T00:56:12;8.53;;;7.80;;
7029;SDS011;3556;53.500;10.176;2022-11-20T00:58:40;7.40;;;6.73;;
7029;SDS011;3556;53.500;10.176;2022-11-20T01:03:35;8.47;;;7.50;;
7029;SDS011;3556;53.500;10.176;2022-11-20T01:06:03;10.63;;;7.77;;
7029;SDS011;3556;53.500;10.176;2022-11-20T01:08:32;11.50;;;7.53;;
7029;SDS011;3556;53.500;10.176;2022-11-20T01:11:06;9.90;;;7.80;;
7029;SDS011;3556;53.500;10.176;2022-11-20T01:13:36;12.23;;;6.40;;
7029;SDS011;3556;53.500;10.176;2022-11-20T01:16:06;9.87;;;7.73;;
7029;SDS011;3556;53.500;10.176;2022-11-20T01:18:44;8.80;;;7.90;;
7029;SDS011;3556;53.500;10.176;2022-11-20T01:21:16;9.73;;;7.93;;
7029;SDS011;3556;53.500;10.176;2022-11-20T01:23:46;9.53;;;7.77;;
7029;SDS011;3556;53.500;10.176;2022-11-20T01:26:14;10.77;;;8.20;;
7029;SDS011;3556;53.500;10.176;2022-11-20T01:28:42;8.73;;;7.40;;
7029;SDS011;3556;53.500;10.176;2022-11-20T01:31:15;8.90;;;8.00;;
7029;SDS011;3556;53.500;10.176;2022-11-20T01:33:45;9.77;;;8.27;;
7029;SDS011;3556;53.500;10.176;2022-11-20T01:36:12;8.00;;;7.40;;
7029;SDS011;3556;53.500;10.176;2022-11-20T01:38:39;8.70;;;7.90;;
7029;SDS011;3556;53.500;10.176;2022-11-20T01:41:05;9.07;;;7.40;;
7029;SDS011;3556;53.500;10.176;2022-11-20T01:43:31;10.73;;;7.30;;
7029;SDS011;3556;53.500;10.176;2022-11-20T01:49:02;11.13;;;7.57;;
7029;SDS011;3556;53.500;10.176;2022-11-20T01:54:22;8.07;;;7.27;;
7029;SDS011;3556;53.500;10.176;2022-11-20T01:57:01;8.93;;;7.63;;
7029;SDS011;3556;53.500;10.176;2022-11-20T01:59:28;18.37;;;8.70;;
7029;SDS011;3556;53.500;10.176;2022-11-20T02:01:54;8.57;;;7.73;;
7029;SDS011;3556;53.500;10.176;2022-11-20T02:04:20;10.03;;;7.70;;
7029;SDS011;3556;53.500;10.176;2022-11-20T02:07:21;8.70;;;7.90;;
7029;SDS011;3556;53.500;10.176;2022-11-20T02:09:40;8.03;;;7.43;;
7029;SDS011;3556;53.500;10.176;2022-11-20T02:12:06;8.40;;;7.70;;
7029;SDS011;3556;53.500;10.176;2022-11-20T02:14:51;8.90;;;8.00;;
7029;SDS011;3556;53.500;10.176;2022-11-20T02:17:17;8.77;;;7.93;;
7029;SDS011;3556;53.500;10.176;2022-11-20T02:19:43;9.97;;;7.90;;
7029;SDS011;3556;53.500;10.176;2022-11-20T02:22:10;8.53;;;7.63;;
7029;SDS011;3556;53.500;10.176;2022-11-20T02:24:46;9.13;;;8.00;;
7029;SDS011;3556;53.500;10.176;2022-11-20T02:27:14;8.47;;;7.67;;
7029;SDS011;3556;53.500;10.176;2022-11-20T02:32:19;8.17;;;7.50;;
7029;SDS011;3556;53.500;10.176;2022-11-20T02:34:53;9.70;;;7.40;;
7029;SDS011;3556;53.500;10.176;2022-11-20T02:37:20;8.87;;;7.60;;
7029;SDS011;3556;53.500;10.176;2022-11-20T02:39:46;8.23;;;7.43;;
7029;SDS011;3556;53.500;10.176;2022-11-20T02:42:14;11.00;;;8.40;;
7029;SDS011;3556;53.500;10.176;2022-11-20T02:44:40;11.70;;;7.63;;
7029;SDS011;3556;53.500;10.176;2022-11-20T02:47:05;10.80;;;7.77;;
7029;SDS011;3556;53.500;10.176;2022-11-20T02:49:31;10.30;;;8.30;;
7029;SDS011;3556;53.500;10.176;2022-11-20T02:51:58;8.90;;;8.03;;
7029;SDS011;3556;53.500;10.176;2022-11-20T02:54:24;9.10;;;8.20;;
7029;SDS011;3556;53.500;10.176;2022-11-20T02:56:50;9.60;;;8.10;;
7029;SDS011;3556;53.500;10.176;2022-11-20T02:59:16;9.20;;;8.37;;
7029;SDS011;3556;53.500;10.176;2022-11-20T03:01:42;11.00;;;8.00;;
7029;SDS011;3556;53.500;10.176;2022-11-20T03:04:07;9.53;;;8.30;;
7029;SDS011;3556;53.500;10.176;2022-11-20T03:06:34;8.50;;;7.67;;
7029;SDS011;3556;53.500;10.176;2022-11-20T03:09:00;8.20;;;7.50;;
7029;SDS011;3556;53.500;10.176;2022-11-20T03:11:25;13.50;;;8.23;;
7029;SDS011;3556;53.500;10.176;2022-11-20T03:13:51;13.70;;;8.23;;
7029;SDS011;3556;53.500;10.176;2022-11-20T03:16:18;9.80;;;8.33;;
7029;SDS011;3556;53.500;10.176;2022-11-20T03:18:46;9.63;;;8.70;;
7029;SDS011;3556;53.500;10.176;2022-11-20T03:21:12;9.63;;;8.73;;
7029;SDS011;3556;53.500;10.176;2022-11-20T03:23:39;11.00;;;8.13;;
7029;SDS011;3556;53.500;10.176;2022-11-20T03:26:16;10.07;;;8.97;;
7029;SDS011;3556;53.500;10.176;2022-11-20T03:29:02;9.13;;;8.33;;
7029;SDS011;3556;53.500;10.176;2022-11-20T03:31:30;11.67;;;8.70;;
7029;SDS011;3556;53.500;10.176;2022-11-20T03:34:01;11.27;;;9.03;;
7029;SDS011;3556;53.500;10.176;2022-11-20T03:36:27;9.80;;;8.17;;
7029;SDS011;3556;53.500;10.176;2022-11-20T03:38:53;9.10;;;8.30;;
7029;SDS011;3556;53.500;10.176;2022-11-20T03:41:21;9.87;;;8.90;;
7029;SDS011;3556;53.500;10.176;2022-11-20T03:43:52;10.43;;;8.60;;
7029;SDS011;3556;53.500;10.176;2022-11-20T03:46:19;11.00;;;8.53;;
7029;SDS011;3556;53.500;10.176;2022-11-20T03:48:46;9.83;;;8.70;;
7029;SDS011;3556;53.500;10.176;2022-11-20T03:51:16;9.77;;;8.80;;
7029;SDS011;3556;53.500;10.176;2022-11-20T03:53:44;11.13;;;8.90;;
7029;SDS011;3556;53.500;10.176;2022-11-20T03:56:11;10.30;;;7.87;;
7029;SDS011;3556;53.500;10.176;2022-11-20T03:58:39;9.03;;;8.00;;
7029;SDS011;3556;53.500;10.176;2022-11-20T04:01:10;10.07;;;9.00;;
7029;SDS011;3556;53.500;10.176;2022-11-20T04:03:36;10.20;;;9.17;;
7029;SDS011;3556;53.500;10.176;2022-11-20T04:06:07;9.33;;;7.90;;
7029;SDS011;3556;53.500;10.176;2022-11-20T04:08:37;11.37;;;9.00;;
7029;SDS011;3556;53.500;10.176;2022-11-20T04:13:42;9.53;;;8.40;;
7029;SDS011;3556;53.500;10.176;2022-11-20T04:16:11;10.90;;;9.57;;
7029;SDS011;3556;53.500;10.176;2022-11-20T04:18:37;13.63;;;8.97;;
7029;SDS011;3556;53.500;10.176;2022-11-20T04:21:03;10.93;;;8.93;;
7029;SDS011;3556;53.500;10.176;2022-11-20T04:23:30;12.43;;;8.93;;
7029;SDS011;3556;53.500;10.176;2022-11-20T04:26:03;9.27;;;8.37;;
7029;SDS011;3556;53.500;10.176;2022-11-20T04:28:33;9.37;;;8.57;;
7029;SDS011;3556;53.500;10.176;2022-11-20T04:31:06;8.30;;;7.60;;
7029;SDS011;3556;53.500;10.176;2022-11-20T04:33:37;8.80;;;8.10;;
7029;SDS011;3556;53.500;10.176;2022-11-20T04:36:04;12.17;;;8.97;;
7029;SDS011;3556;53.500;10.176;2022-11-20T04:38:32;8.50;;;7.80;;
7029;SDS011;3556;53.500;10.176;2022-11-20T04:40:58;10.10;;;8.57;;
7029;SDS011;3556;53.500;10.176;2022-11-20T04:43:25;9.80;;;8.60;;
7029;SDS011;3556;53.500;10.176;2022-11-20T04:45:52;11.43;;;8.40;;
7029;SDS011;3556;53.500;10.176;2022-11-20T04:48:18;9.63;;;8.00;;
7029;SDS011;3556;53.500;10.176;2022-11-20T04:50:44;8.17;;;7.47;;
7029;SDS011;3556;53.500;10.176;2022-11-20T04:53:10;8.07;;;7.47;;
7029;SDS011;3556;53.500;10.176;2022-11-20T04:55:35;8.47;;;7.67;;
7029;SDS011;3556;53.500;10.176;2022-11-20T04:58:01;8.60;;;7.90;;
7029;SDS011;3556;53.500;10.176;2022-11-20T05:00:27;13.57;;;8.30;;
7029;SDS011;3556;53.500;10.176;2022-11-20T05:02:52;8.60;;;7.53;;
7029;SDS011;3556;53.500;10.176;2022-11-20T05:05:18;8.93;;;8.10;;
7029;SDS011;3556;53.500;10.176;2022-11-20T05:07:43;9.33;;;8.40;;
7029;SDS011;3556;53.500;10.176;2022-11-20T05:10:09;9.10;;;8.23;;
7029;SDS011;3556;53.500;10.176;2022-11-20T05:12:35;10.13;;;8.37;;
7029;SDS011;3556;53.500;10.176;2022-11-20T05:15:00;8.30;;;7.57;;
7029;SDS011;3556;53.500;10.176;2022-11-20T05:17:26;13.00;;;8.50;;
7029;SDS011;3556;53.500;10.176;2022-11-20T05:19:51;17.63;;;7.70;;
7029;SDS011;3556;53.500;10.176;2022-11-20T05:22:17;9.77;;;8.10;;
7029;SDS011;3556;53.500;10.176;2022-11-20T05:24:43;8.20;;;7.57;;
7029;SDS011;3556;53.500;10.176;2022-11-20T05:27:08;8.93;;;7.63;;
7029;SDS011;3556;53.500;10.176;2022-11-20T05:29:34;8.13;;;7.43;;
7029;SDS011;3556;53.500;10.176;2022-11-20T05:31:59;7.87;;;7.30;;
7029;SDS011;3556;53.500;10.176;2022-11-20T05:34:25;8.67;;;7.83;;
7029;SDS011;3556;53.500;10.176;2022-11-20T05:36:51;9.93;;;8.27;;
7029;SDS011;3556;53.500;10.176;2022-11-20T05:39:16;12.43;;;8.00;;
7029;SDS011;3556;53.500;10.176;2022-11-20T05:41:42;8.77;;;7.97;;
7029;SDS011;3556;53.500;10.176;2022-11-20T05:44:10;7.80;;;7.20;;
7029;SDS011;3556;53.500;10.176;2022-11-20T05:46:36;10.30;;;7.67;;
7029;SDS011;3556;53.500;10.176;2022-11-20T05:49:01;10.20;;;8.67;;
7029;SDS011;3556;53.500;10.176;2022-11-20T05:51:27;17.53;;;7.33;;
7029;SDS011;3556;53.500;10.176;2022-11-20T05:53:53;10.27;;;7.60;;
7029;SDS011;3556;53.500;10.176;2022-11-20T05:56:21;8.80;;;7.93;;
7029;SDS011;3556;53.500;10.176;2022-11-20T05:58:47;8.50;;;7.67;;
7029;SDS011;3556;53.500;10.176;2022-11-20T06:03:44;9.43;;;8.43;;
7029;SDS011;3556;53.500;10.176;2022-11-20T06:06:12;9.90;;;8.90;;
7029;SDS011;3556;53.500;10.176;2022-11-20T06:08:42;13.27;;;8.33;;
7029;SDS011;3556;53.500;10.176;2022-11-20T06:11:09;8.53;;;7.30;;
7029;SDS011;3556;53.500;10.176;2022-11-20T06:13:35;13.77;;;7.90;;
7029;SDS011;3556;53.500;10.176;2022-11-20T06:16:02;8.97;;;8.10;;
7029;SDS011;3556;53.500;10.176;2022-11-20T06:18:28;20.43;;;8.70;;
7029;SDS011;3556;53.500;10.176;2022-11-20T06:21:01;10.43;;;9.00;;
7029;SDS011;3556;53.500;10.176;2022-11-20T06:23:29;12.50;;;8.13;;
7029;SDS011;3556;53.500;10.176;2022-11-20T06:25:56;11.23;;;7.53;;
7029;SDS011;3556;53.500;10.176;2022-11-20T06:28:22;13.90;;;8.30;;
7029;SDS011;3556;53.500;10.176;2022-11-20T06:30:48;17.33;;;7.97;;
7029;SDS011;3556;53.500;10.176;2022-11-20T06:33:13;8.23;;;7.53;;
7029;SDS011;3556;53.500;10.176;2022-11-20T06:35:39;8.10;;;7.33;;
7029;SDS011;3556;53.500;10.176;2022-11-20T06:38:04;8.70;;;7.80;;
7029;SDS011;3556;53.500;10.176;2022-11-20T06:40:30;12.50;;;8.00;;
7029;SDS011;3556;53.500;10.176;2022-11-20T06:42:56;8.63;;;7.63;;
7029;SDS011;3556;53.500;10.176;2022-11-20T06:45:21;9.10;;;7.77;;
7029;SDS011;3556;53.500;10.176;2022-11-20T06:47:47;8.73;;;7.83;;
7029;SDS011;3556;53.500;10.176;2022-11-20T06:50:13;9.10;;;8.20;;
7029;SDS011;3556;53.500;10.176;2022-11-20T06:52:38;11.67;;;9.10;;
7029;SDS011;3556;53.500;10.176;2022-11-20T06:55:04;9.97;;;8.73;;
7029;SDS011;3556;53.500;10.176;2022-11-20T06:57:30;11.70;;;8.40;;
7029;SDS011;3556;53.500;10.176;2022-11-20T06:59:56;9.60;;;8.80;;
7029;SDS011;3556;53.500;10.176;2022-11-20T07:02:21;10.00;;;7.60;;
7029;SDS011;3556;53.500;10.176;2022-11-20T07:04:53;9.60;;;8.43;;
7029;SDS011;3556;53.500;10.176;2022-11-20T07:07:18;8.57;;;7.60;;
7029;SDS011;3556;53.500;10.176;2022-11-20T07:09:44;10.70;;;8.20;;
7029;SDS011;3556;53.500;10.176;2022-11-20T07:12:10;8.43;;;7.73;;
7029;SDS011;3556;53.500;10.176;2022-11-20T07:14:35;11.40;;;8.33;;
7029;SDS011;3556;53.500;10.176;2022-11-20T07:17:01;8.73;;;7.80;;
7029;SDS011;3556;53.500;10.176;2022-11-20T07:19:26;11.93;;;8.03;;
7029;SDS011;3556;53.500;10.176;2022-11-20T07:21:52;9.13;;;8.20;;
7029;SDS011;3556;53.500;10.176;2022-11-20T07:24:17;9.80;;;8.80;;
7029;SDS011;3556;53.500;10.176;2022-11-20T07:26:45;12.13;;;9.07;;
7029;SDS011;3556;53.500;10.176;2022-11-20T07:29:12;9.63;;;8.63;;
7029;SDS011;3556;53.500;10.176;2022-11-20T07:31:37;10.87;;;9.00;;
7029;SDS011;3556;53.500;10.176;2022-11-20T07:34:03;10.17;;;9.03;;
7029;SDS011;3556;53.500;10.176;2022-11-20T07:36:29;11.60;;;9.00;;
7029;SDS011;3556;53.500;10.176;2022-11-20T07:38:54;11.07;;;9.27;;
7029;SDS011;3556;53.500;10.176;2022-11-20T07:41:20;13.63;;;9.77;;
7029;SDS011;3556;53.500;10.176;2022-11-20T07:43:45;12.40;;;10.33;;
7029;SDS011;3556;53.500;10.176;2022-11-20T07:46:11;12.33;;;10.60;;
7029;SDS011;3556;53.500;10.176;2022-11-20T07:48:37;15.77;;;10.93;;
7029;SDS011;3556;53.500;10.176;2022-11-20T07:51:02;17.40;;;11.27;;
7029;SDS011;3556;53.500;10.176;2022-11-20T07:53:28;11.87;;;10.00;;
7029;SDS011;3556;53.500;10.176;2022-11-20T07:55:54;13.60;;;10.80;;
7029;SDS011;3556;53.500;10.176;2022-11-20T07:58:20;12.20;;;10.13;;
7029;SDS011;3556;53.500;10.176;2022-11-20T08:00:46;12.80;;;10.37;;
7029;SDS011;3556;53.500;10.176;2022-11-20T08:03:11;13.17;;;10.13;;
7029;SDS011;3556;53.500;10.176;2022-11-20T08:05:37;11.80;;;10.07;;
7029;SDS011;3556;53.500;10.176;2022-11-20T08:08:03;16.20;;;12.13;;
7029;SDS011;3556;53.500;10.176;2022-11-20T08:10:29;21.00;;;13.83;;
7029;SDS011;3556;53.500;10.176;2022-11-20T08:12:54;25.03;;;14.40;;
7029;SDS011;3556;53.500;10.176;2022-11-20T08:15:39;24.67;;;15.20;;
7029;SDS011;3556;53.500;10.176;2022-11-20T08:18:06;26.07;;;15.97;;
7029;SDS011;3556;53.500;10.176;2022-11-20T08:20:36;25.43;;;15.63;;
7029;SDS011;3556;53.500;10.176;2022-11-20T08:23:04;25.43;;;15.40;;
7029;SDS011;3556;53.500;10.176;2022-11-20T08:25:30;21.40;;;15.37;;
7029;SDS011;3556;53.500;10.176;2022-11-20T08:28:01;20.77;;;15.00;;
7029;SDS011;3556;53.500;10.176;2022-11-20T08:30:28;22.67;;;14.60;;
7029;SDS011;3556;53.500;10.176;2022-11-20T08:32:54;19.10;;;13.70;;
7029;SDS011;3556;53.500;10.176;2022-11-20T08:35:20;21.20;;;13.33;;
7029;SDS011;3556;53.500;10.176;2022-11-20T08:37:47;19.47;;;13.37;;
7029;SDS011;3556;53.500;10.176;2022-11-20T08:40:13;14.77;;;11.90;;
7029;SDS011;3556;53.500;10.176;2022-11-20T08:42:48;14.83;;;11.50;;
7029;SDS011;3556;53.500;10.176;2022-11-20T08:45:15;14.93;;;11.37;;
7029;SDS011;3556;53.500;10.176;2022-11-20T08:47:42;12.87;;;11.03;;
7029;SDS011;3556;53.500;10.176;2022-11-20T08:50:09;12.90;;;10.70;;
7029;SDS011;3556;53.500;10.176;2022-11-20T08:52:36;11.67;;;10.20;;
7029;SDS011;3556;53.500;10.176;2022-11-20T08:55:03;13.60;;;10.70;;
7029;SDS011;3556;53.500;10.176;2022-11-20T08:57:31;11.30;;;10.10;;
7029;SDS011;3556;53.500;10.176;2022-11-20T08:59:57;14.10;;;10.30;;
7029;SDS011;3556;53.500;10.176;2022-11-20T09:02:23;14.53;;;10.23;;
7029;SDS011;3556;53.500;10.176;2022-11-20T09:04:48;10.37;;;8.40;;
7029;SDS011;3556;53.500;10.176;2022-11-20T09:07:14;9.90;;;8.30;;
7029;SDS011;3556;53.500;10.176;2022-11-20T09:09:40;8.30;;;7.60;;
7029;SDS011;3556;53.500;10.176;2022-11-20T09:12:05;6.83;;;6.23;;
7029;SDS011;3556;53.500;10.176;2022-11-20T09:14:31;5.40;;;4.97;;
7029;SDS011;3556;53.500;10.176;2022-11-20T09:16:56;5.40;;;5.10;;
7029;SDS011;3556;53.500;10.176;2022-11-20T09:19:23;6.00;;;5.50;;
7029;SDS011;3556;53.500;10.176;2022-11-20T09:21:49;5.80;;;5.37;;
7029;SDS011;3556;53.500;10.176;2022-11-20T09:24:15;5.90;;;5.60;;
7029;SDS011;3556;53.500;10.176;2022-11-20T09:26:41;5.27;;;5.07;;
7029;SDS011;3556;53.500;10.176;2022-11-20T09:29:06;5.23;;;4.90;;
7029;SDS011;3556;53.500;10.176;2022-11-20T09:31:32;5.47;;;5.10;;
7029;SDS011;3556;53.500;10.176;2022-11-20T09:33:58;4.57;;;4.20;;
7029;SDS011;3556;53.500;10.176;2022-11-20T09:36:23;5.00;;;4.70;;
7029;SDS011;3556;53.500;10.176;2022-11-20T09:38:49;4.97;;;4.70;;
7029;SDS011;3556;53.500;10.176;2022-11-20T09:46:57;4.40;;;4.13;;
7029;SDS011;3556;53.500;10.176;2022-11-20T09:54:43;4.73;;;4.53;;
7029;SDS011;3556;53.500;10.176;2022-11-20T09:57:17;5.20;;;4.80;;
7029;SDS011;3556;53.500;10.176;2022-11-20T10:07:44;13.30;;;9.83;;
7029;SDS011;3556;53.500;10.176;2022-11-20T10:10:42;12.43;;;9.63;;
7029;SDS011;3556;53.500;10.176;2022-11-20T10:22:19;5.40;;;5.20;;
7029;SDS011;3556;53.500;10.176;2022-11-20T10:25:13;5.80;;;5.50;;
7029;SDS011;3556;53.500;10.176;2022-11-20T10:30:42;7.73;;;7.00;;
7029;SDS011;3556;53.500;10.176;2022-11-20T10:35:49;6.43;;;6.00;;
7029;SDS011;3556;53.500;10.176;2022-11-20T10:38:21;7.53;;;7.03;;
7029;SDS011;3556;53.500;10.176;2022-11-20T10:40:57;7.23;;;6.83;;
7029;SDS011;3556;53.500;10.176;2022-11-20T10:43:45;5.30;;;4.90;;
7029;SDS011;3556;53.500;10.176;2022-11-20T10:46:14;5.57;;;5.20;;
7029;SDS011;3556;53.500;10.176;2022-11-20T10:48:43;5.97;;;5.60;;
7029;SDS011;3556;53.500;10.176;2022-11-20T11:01:58;5.60;;;5.30;;
7029;SDS011;3556;53.500;10.176;2022-11-20T11:04:33;5.30;;;5.10;;
7029;SDS011;3556;53.500;10.176;2022-11-20T11:07:16;5.40;;;5.20;;
7029;SDS011;3556;53.500;10.176;2022-11-20T11:09:44;6.10;;;5.70;;
7029;SDS011;3556;53.500;10.176;2022-11-20T11:12:13;5.30;;;5.20;;
7029;SDS011;3556;53.500;10.176;2022-11-20T11:14:46;5.73;;;5.20;;
7029;SDS011;3556;53.500;10.176;2022-11-20T11:17:27;4.90;;;4.70;;
7029;SDS011;3556;53.500;10.176;2022-11-20T11:19:58;5.30;;;5.00;;
7029;SDS011;3556;53.500;10.176;2022-11-20T11:22:25;4.60;;;4.30;;
7029;SDS011;3556;53.500;10.176;2022-11-20T11:24:54;5.03;;;4.73;;
7029;SDS011;3556;53.500;10.176;2022-11-20T11:27:19;5.30;;;4.83;;
7029;SDS011;3556;53.500;10.176;2022-11-20T11:29:45;5.20;;;4.90;;
7029;SDS011;3556;53.500;10.176;2022-11-20T11:32:13;4.90;;;4.70;;
7029;SDS011;3556;53.500;10.176;2022-11-20T11:34:42;5.07;;;4.67;;
7029;SDS011;3556;53.500;10.176;2022-11-20T11:37:19;8.00;;;4.87;;
7029;SDS011;3556;53.500;10.176;2022-11-20T11:39:46;4.87;;;4.67;;
7029;SDS011;3556;53.500;10.176;2022-11-20T11:42:15;4.77;;;4.50;;
7029;SDS011;3556;53.500;10.176;2022-11-20T11:44:44;5.03;;;4.83;;
7029;SDS011;3556;53.500;10.176;2022-11-20T11:47:35;4.77;;;4.40;;
7029;SDS011;3556;53.500;10.176;2022-11-20T11:50:13;5.43;;;4.87;;
7029;SDS011;3556;53.500;10.176;2022-11-20T11:52:48;5.10;;;4.90;;
7029;SDS011;3556;53.500;10.176;2022-11-20T12:00:47;26.90;;;13.03;;
7029;SDS011;3556;53.500;10.176;2022-11-20T12:03:27;8.53;;;7.73;;
7029;SDS011;3556;53.500;10.176;2022-11-20T12:06:07;5.50;;;5.17;;
7029;SDS011;3556;53.500;10.176;2022-11-20T12:08:43;6.73;;;6.33;;
7029;SDS011;3556;53.500;10.176;2022-11-20T12:11:24;10.17;;;9.47;;
7029;SDS011;3556;53.500;10.176;2022-11-20T12:16:52;4.63;;;4.43;;
7029;SDS011;3556;53.500;10.176;2022-11-20T12:19:19;5.00;;;4.80;;
7029;SDS011;3556;53.500;10.176;2022-11-20T12:30:00;4.97;;;4.57;;
7029;SDS011;3556;53.500;10.176;2022-11-20T12:40:51;2.80;;;2.70;;
7029;SDS011;3556;53.500;10.176;2022-11-20T12:43:22;3.57;;;3.47;;
7029;SDS011;3556;53.500;10.176;2022-11-20T12:56:48;3.30;;;3.20;;
7029;SDS011;3556;53.500;10.176;2022-11-20T13:02:05;3.63;;;3.53;;
7029;SDS011;3556;53.500;10.176;2022-11-20T13:07:18;3.33;;;3.23;;
7029;SDS011;3556;53.500;10.176;2022-11-20T13:09:47;3.03;;;2.93;;
7029;SDS011;3556;53.500;10.176;2022-11-20T13:15:17;3.60;;;3.33;;
7029;SDS011;3556;53.500;10.176;2022-11-20T13:17:59;3.33;;;3.23;;
7029;SDS011;3556;53.500;10.176;2022-11-20T13:20:26;3.00;;;2.90;;
7029;SDS011;3556;53.500;10.176;2022-11-20T13:22:54;3.10;;;3.00;;
7029;SDS011;3556;53.500;10.176;2022-11-20T13:27:51;3.50;;;3.40;;
7029;SDS011;3556;53.500;10.176;2022-11-20T13:30:22;3.90;;;3.70;;
7029;SDS011;3556;53.500;10.176;2022-11-20T13:32:51;3.40;;;3.30;;
7029;SDS011;3556;53.500;10.176;2022-11-20T13:35:26;3.60;;;3.50;;
7029;SDS011;3556;53.500;10.176;2022-11-20T13:40:33;3.53;;;3.40;;
7029;SDS011;3556;53.500;10.176;2022-11-20T13:43:02;4.73;;;4.53;;
7029;SDS011;3556;53.500;10.176;2022-11-20T13:45:36;4.10;;;4.00;;
7029;SDS011;3556;53.500;10.176;2022-11-20T13:48:02;4.30;;;4.00;;
7029;SDS011;3556;53.500;10.176;2022-11-20T13:53:04;15.17;;;11.30;;
7029;SDS011;3556;53.500;10.176;2022-11-20T14:01:21;7.73;;;7.03;;
7029;SDS011;3556;53.500;10.176;2022-11-20T14:03:49;12.90;;;10.30;;
7029;SDS011;3556;53.500;10.176;2022-11-20T14:08:56;9.73;;;8.10;;
7029;SDS011;3556;53.500;10.176;2022-11-20T14:11:24;6.20;;;5.60;;
7029;SDS011;3556;53.500;10.176;2022-11-20T14:16:23;172.27;;;69.20;;
7029;SDS011;3556;53.500;10.176;2022-11-20T14:18:50;207.23;;;78.77;;
7029;SDS011;3556;53.500;10.176;2022-11-20T14:21:23;113.30;;;47.80;;
7029;SDS011;3556;53.500;10.176;2022-11-20T14:23:53;14.30;;;9.80;;
7029;SDS011;3556;53.500;10.176;2022-11-20T14:26:28;30.77;;;15.80;;
7029;SDS011;3556;53.500;10.176;2022-11-20T14:28:54;23.73;;;13.97;;
7029;SDS011;3556;53.500;10.176;2022-11-20T14:31:23;5.23;;;4.90;;
7029;SDS011;3556;53.500;10.176;2022-11-20T14:33:54;3.80;;;3.70;;
7029;SDS011;3556;53.500;10.176;2022-11-20T14:36:22;3.50;;;3.40;;
7029;SDS011;3556;53.500;10.176;2022-11-20T14:38:50;13.23;;;7.20;;
7029;SDS011;3556;53.500;10.176;2022-11-20T14:41:21;4.80;;;4.57;;
7029;SDS011;3556;53.500;10.176;2022-11-20T14:43:53;16.67;;;7.87;;
7029;SDS011;3556;53.500;10.176;2022-11-20T14:46:23;4.90;;;4.60;;
7029;SDS011;3556;53.500;10.176;2022-11-20T14:48:50;6.00;;;5.40;;
7029;SDS011;3556;53.500;10.176;2022-11-20T14:51:23;5.00;;;4.70;;
7029;SDS011;3556;53.500;10.176;2022-11-20T14:54:08;5.33;;;5.03;;
7029;SDS011;3556;53.500;10.176;2022-11-20T14:56:35;5.67;;;5.17;;
7029;SDS011;3556;53.500;10.176;2022-11-20T14:59:00;5.30;;;5.10;;
7029;SDS011;3556;53.500;10.176;2022-11-20T15:01:30;7.87;;;7.07;;
7029;SDS011;3556;53.500;10.176;2022-11-20T15:04:07;4.53;;;4.43;;
7029;SDS011;3556;53.500;10.176;2022-11-20T15:06:36;4.00;;;3.90;;
7029;SDS011;3556;53.500;10.176;2022-11-20T15:09:04;4.10;;;3.97;;
7029;SDS011;3556;53.500;10.176;2022-11-20T15:11:38;4.27;;;4.07;;
7029;SDS011;3556;53.500;10.176;2022-11-20T15:14:08;4.33;;;4.23;;
7029;SDS011;3556;53.500;10.176;2022-11-20T15:16:34;5.00;;;4.80;;
7029;SDS011;3556;53.500;10.176;2022-11-20T15:19:00;5.07;;;4.73;;
7029;SDS011;3556;53.500;10.176;2022-11-20T15:21:28;4.10;;;4.00;;
7029;SDS011;3556;53.500;10.176;2022-11-20T15:23:54;4.13;;;3.93;;
7029;SDS011;3556;53.500;10.176;2022-11-20T15:26:29;4.90;;;4.60;;
7029;SDS011;3556;53.500;10.176;2022-11-20T15:28:54;4.83;;;4.53;;
7029;SDS011;3556;53.500;10.176;2022-11-20T15:31:21;4.00;;;3.90;;
7029;SDS011;3556;53.500;10.176;2022-11-20T15:33:48;10.30;;;7.23;;
7029;SDS011;3556;53.500;10.176;2022-11-20T15:36:14;7.57;;;6.70;;
7029;SDS011;3556;53.500;10.176;2022-11-20T15:38:39;5.47;;;5.07;;
7029;SDS011;3556;53.500;10.176;2022-11-20T15:41:05;5.50;;;4.93;;
7029;SDS011;3556;53.500;10.176;2022-11-20T15:43:31;6.03;;;5.67;;
7029;SDS011;3556;53.500;10.176;2022-11-20T15:46:01;5.10;;;4.90;;
7029;SDS011;3556;53.500;10.176;2022-11-20T15:48:31;6.07;;;5.63;;
7029;SDS011;3556;53.500;10.176;2022-11-20T15:53:54;5.40;;;5.20;;
7029;SDS011;3556;53.500;10.176;2022-11-20T15:56:20;5.60;;;5.20;;
7029;SDS011;3556;53.500;10.176;2022-11-20T15:58:46;6.23;;;5.70;;
7029;SDS011;3556;53.500;10.176;2022-11-20T16:01:13;9.97;;;8.27;;
7029;SDS011;3556;53.500;10.176;2022-11-20T16:03:43;7.27;;;6.67;;
7029;SDS011;3556;53.500;10.176;2022-11-20T16:06:09;28.97;;;14.97;;
7029;SDS011;3556;53.500;10.176;2022-11-20T16:08:34;112.77;;;44.00;;
7029;SDS011;3556;53.500;10.176;2022-11-20T16:11:00;43.03;;;20.70;;
7029;SDS011;3556;53.500;10.176;2022-11-20T16:13:26;20.40;;;12.40;;
7029;SDS011;3556;53.500;10.176;2022-11-20T16:16:18;23.30;;;13.20;;
7029;SDS011;3556;53.500;10.176;2022-11-20T16:18:46;12.67;;;9.30;;
7029;SDS011;3556;53.500;10.176;2022-11-20T16:21:12;11.00;;;9.17;;
7029;SDS011;3556;53.500;10.176;2022-11-20T16:23:40;50.20;;;20.27;;
7029;SDS011;3556;53.500;10.176;2022-11-20T16:26:25;63.53;;;26.87;;
7029;SDS011;3556;53.500;10.176;2022-11-20T16:28:51;37.80;;;19.53;;
7029;SDS011;3556;53.500;10.176;2022-11-20T16:31:18;82.90;;;31.83;;
7029;SDS011;3556;53.500;10.176;2022-11-20T16:33:51;93.70;;;36.07;;
7029;SDS011;3556;53.500;10.176;2022-11-20T16:36:18;39.37;;;17.77;;
7029;SDS011;3556;53.500;10.176;2022-11-20T16:38:45;21.33;;;11.00;;
7029;SDS011;3556;53.500;10.176;2022-11-20T16:41:11;10.63;;;8.30;;
7029;SDS011;3556;53.500;10.176;2022-11-20T16:43:49;6.37;;;5.87;;
7029;SDS011;3556;53.500;10.176;2022-11-20T16:46:17;5.73;;;5.33;;
7029;SDS011;3556;53.500;10.176;2022-11-20T16:48:44;5.67;;;5.37;;
7029;SDS011;3556;53.500;10.176;2022-11-20T16:51:10;6.37;;;5.87;;
7029;SDS011;3556;53.500;10.176;2022-11-20T16:53:37;9.57;;;7.20;;
7029;SDS011;3556;53.500;10.176;2022-11-20T16:56:13;11.03;;;7.40;;
7029;SDS011;3556;53.500;10.176;2022-11-20T16:58:41;9.17;;;7.80;;
7029;SDS011;3556;53.500;10.176;2022-11-20T17:01:11;9.50;;;7.90;;
7029;SDS011;3556;53.500;10.176;2022-11-20T17:03:39;10.30;;;8.23;;
7029;SDS011;3556;53.500;10.176;2022-11-20T17:06:16;8.07;;;7.27;;